Mechanicsburg, Pennsylvania
Current Conditions -  °F | °C
As of 7:56 AM on Friday 24 Oct 2014 (Local Time) from KCXY Reporting Station
Clear Clear  
Wind Chill: 56°   Ceiling: Unl
Heat Index: 56°   Visibility: 10mi
Dew Point: 43°   Wind: 8mph
Humidity: 62%   Direction: 300°WNW
Pressure: 29.93"   Gusts: NA
Location:  40.21°N, 77.01°W
Report Text: KCXY 241156Z 30007KT 10SM CLR 13/06 A2993 RMK AO2 SLP136 T01330061 10144 20128 51004
Loading
Personal Weather Stations






























Interactive Weather Map
Tropical Storm Tracking
New forecast layout! Learn more

10-Day Weather Forecast

Advertisements
Track Severe Weather on mobile